sensor_id;sensor_type;location;lat;lon;timestamp;pressure;altitude;pressure_sealevel;temperature;humidity
46267;BME280;31998;48.798;15.066;2022-12-18T00:01:26;97005.56;;;-5.93;100.00
46267;BME280;31998;48.798;15.066;2022-12-18T00:03:53;97001.09;;;-6.01;100.00
46267;BME280;31998;48.798;15.066;2022-12-18T00:06:19;97006.84;;;-6.23;100.00
46267;BME280;31998;48.798;15.066;2022-12-18T00:08:45;97005.88;;;-6.40;100.00
46267;BME280;31998;48.798;15.066;2022-12-18T00:11:13;97004.03;;;-6.48;100.00
46267;BME280;31998;48.798;15.066;2022-12-18T00:13:39;97007.47;;;-6.65;100.00
46267;BME280;31998;48.798;15.066;2022-12-18T00:16:07;97000.44;;;-6.82;100.00
46267;BME280;31998;48.798;15.066;2022-12-18T00:18:34;97006.16;;;-7.15;100.00
46267;BME280;31998;48.798;15.066;2022-12-18T00:21:01;97012.88;;;-7.30;100.00
46267;BME280;31998;48.798;15.066;2022-12-18T00:23:28;97003.03;;;-7.46;100.00
46267;BME280;31998;48.798;15.066;2022-12-18T00:25:54;96994.78;;;-7.51;100.00
46267;BME280;31998;48.798;15.066;2022-12-18T00:28:20;97007.47;;;-7.56;100.00
46267;BME280;31998;48.798;15.066;2022-12-18T00:30:45;97010.34;;;-7.86;100.00
46267;BME280;31998;48.798;15.066;2022-12-18T00:33:11;97015.63;;;-8.06;100.00
46267;BME280;31998;48.798;15.066;2022-12-18T00:35:36;97017.00;;;-8.11;100.00
46267;BME280;31998;48.798;15.066;2022-12-18T00:38:02;97009.63;;;-8.35;100.00
46267;BME280;31998;48.798;15.066;2022-12-18T00:40:27;97016.25;;;-8.51;100.00
46267;BME280;31998;48.798;15.066;2022-12-18T00:42:52;97032.31;;;-8.84;100.00
46267;BME280;31998;48.798;15.066;2022-12-18T00:45:21;97023.38;;;-9.11;100.00
46267;BME280;31998;48.798;15.066;2022-12-18T00:47:47;97031.56;;;-9.25;100.00
46267;BME280;31998;48.798;15.066;2022-12-18T00:50:12;97035.41;;;-9.29;100.00
46267;BME280;31998;48.798;15.066;2022-12-18T00:52:37;97037.56;;;-9.44;100.00
46267;BME280;31998;48.798;15.066;2022-12-18T00:55:03;97051.78;;;-9.58;100.00
46267;BME280;31998;48.798;15.066;2022-12-18T00:57:28;97052.22;;;-9.73;100.00
46267;BME280;31998;48.798;15.066;2022-12-18T00:59:54;97051.06;;;-9.90;100.00
46267;BME280;31998;48.798;15.066;2022-12-18T01:02:19;97057.84;;;-9.99;100.00
46267;BME280;31998;48.798;15.066;2022-12-18T01:04:45;97059.47;;;-10.07;100.00
46267;BME280;31998;48.798;15.066;2022-12-18T01:07:10;97064.94;;;-10.10;100.00
46267;BME280;31998;48.798;15.066;2022-12-18T01:09:35;97068.38;;;-10.31;100.00
46267;BME280;31998;48.798;15.066;2022-12-18T01:12:01;97067.50;;;-10.41;100.00
46267;BME280;31998;48.798;15.066;2022-12-18T01:14:26;97063.09;;;-10.41;100.00
46267;BME280;31998;48.798;15.066;2022-12-18T01:16:52;97071.78;;;-10.51;100.00
46267;BME280;31998;48.798;15.066;2022-12-18T01:19:17;97074.13;;;-10.69;100.00
46267;BME280;31998;48.798;15.066;2022-12-18T01:21:43;97083.09;;;-10.73;100.00
46267;BME280;31998;48.798;15.066;2022-12-18T01:24:11;97091.09;;;-10.65;100.00
46267;BME280;31998;48.798;15.066;2022-12-18T01:26:36;97094.59;;;-10.76;100.00
46267;BME280;31998;48.798;15.066;2022-12-18T01:29:02;97083.13;;;-10.84;100.00
46267;BME280;31998;48.798;15.066;2022-12-18T01:31:30;97104.53;;;-10.92;100.00
46267;BME280;31998;48.798;15.066;2022-12-18T01:33:56;97094.88;;;-11.01;100.00
46267;BME280;31998;48.798;15.066;2022-12-18T01:36:24;97100.31;;;-11.15;100.00
46267;BME280;31998;48.798;15.066;2022-12-18T01:38:50;97103.41;;;-11.22;100.00
46267;BME280;31998;48.798;15.066;2022-12-18T01:41:17;97106.59;;;-11.29;100.00
46267;BME280;31998;48.798;15.066;2022-12-18T01:46:10;97096.34;;;-11.42;100.00
46267;BME280;31998;48.798;15.066;2022-12-18T01:48:36;97100.34;;;-11.49;100.00
46267;BME280;31998;48.798;15.066;2022-12-18T01:51:02;97114.75;;;-11.56;100.00
46267;BME280;31998;48.798;15.066;2022-12-18T01:53:27;97110.28;;;-11.65;100.00
46267;BME280;31998;48.798;15.066;2022-12-18T01:55:55;97104.25;;;-11.77;100.00
46267;BME280;31998;48.798;15.066;2022-12-18T01:58:32;97111.94;;;-11.64;100.00
46267;BME280;31998;48.798;15.066;2022-12-18T02:01:01;97117.13;;;-11.64;100.00
46267;BME280;31998;48.798;15.066;2022-12-18T02:03:26;97105.44;;;-11.70;100.00
46267;BME280;31998;48.798;15.066;2022-12-18T02:08:36;97119.13;;;-11.57;100.00
46267;BME280;31998;48.798;15.066;2022-12-18T02:13:49;97119.63;;;-11.40;100.00
46267;BME280;31998;48.798;15.066;2022-12-18T02:16:32;97118.19;;;-11.44;100.00
46267;BME280;31998;48.798;15.066;2022-12-18T02:19:06;97122.31;;;-11.42;100.00
46267;BME280;31998;48.798;15.066;2022-12-18T02:22:07;97118.41;;;-11.48;100.00
46267;BME280;31998;48.798;15.066;2022-12-18T02:24:46;97122.91;;;-11.50;100.00
46267;BME280;31998;48.798;15.066;2022-12-18T02:27:18;97121.84;;;-11.58;100.00
46267;BME280;31998;48.798;15.066;2022-12-18T02:29:48;97117.84;;;-11.51;100.00
46267;BME280;31998;48.798;15.066;2022-12-18T02:32:19;97122.91;;;-11.38;100.00
46267;BME280;31998;48.798;15.066;2022-12-18T02:34:46;97114.28;;;-11.28;100.00
46267;BME280;31998;48.798;15.066;2022-12-18T02:37:16;97114.75;;;-11.11;100.00
46267;BME280;31998;48.798;15.066;2022-12-18T02:39:44;97107.88;;;-11.01;100.00
46267;BME280;31998;48.798;15.066;2022-12-18T02:42:11;97114.94;;;-10.92;100.00
46267;BME280;31998;48.798;15.066;2022-12-18T02:44:46;97125.81;;;-10.98;100.00
46267;BME280;31998;48.798;15.066;2022-12-18T02:47:13;97130.53;;;-11.03;100.00
46267;BME280;31998;48.798;15.066;2022-12-18T02:49:53;97129.59;;;-11.02;100.00
46267;BME280;31998;48.798;15.066;2022-12-18T02:55:18;97119.19;;;-11.02;100.00
46267;BME280;31998;48.798;15.066;2022-12-18T02:57:53;97124.75;;;-10.96;100.00
46267;BME280;31998;48.798;15.066;2022-12-18T03:00:22;97117.31;;;-11.00;100.00
46267;BME280;31998;48.798;15.066;2022-12-18T03:05:47;97132.19;;;-11.02;100.00
46267;BME280;31998;48.798;15.066;2022-12-18T03:08:19;97127.38;;;-11.18;100.00
46267;BME280;31998;48.798;15.066;2022-12-18T03:10:54;97127.84;;;-11.13;100.00
46267;BME280;31998;48.798;15.066;2022-12-18T03:13:37;97129.75;;;-11.26;100.00
46267;BME280;31998;48.798;15.066;2022-12-18T03:16:06;97136.47;;;-11.35;100.00
46267;BME280;31998;48.798;15.066;2022-12-18T03:18:56;97128.22;;;-11.40;100.00
46267;BME280;31998;48.798;15.066;2022-12-18T03:21:26;97131.03;;;-11.54;100.00
46267;BME280;31998;48.798;15.066;2022-12-18T03:23:54;97114.66;;;-11.66;100.00
46267;BME280;31998;48.798;15.066;2022-12-18T03:26:23;97130.44;;;-11.69;100.00
46267;BME280;31998;48.798;15.066;2022-12-18T03:28:56;97125.47;;;-11.94;100.00
46267;BME280;31998;48.798;15.066;2022-12-18T03:31:25;97138.06;;;-12.12;100.00
46267;BME280;31998;48.798;15.066;2022-12-18T03:33:55;97134.06;;;-12.40;100.00
46267;BME280;31998;48.798;15.066;2022-12-18T03:36:23;97143.41;;;-12.38;100.00
46267;BME280;31998;48.798;15.066;2022-12-18T03:38:49;97144.81;;;-12.45;100.00
46267;BME280;31998;48.798;15.066;2022-12-18T03:41:28;97150.09;;;-12.70;100.00
46267;BME280;31998;48.798;15.066;2022-12-18T03:49:32;97147.94;;;-13.13;100.00
46267;BME280;31998;48.798;15.066;2022-12-18T03:52:04;97149.75;;;-13.26;100.00
46267;BME280;31998;48.798;15.066;2022-12-18T03:54:32;97156.19;;;-13.32;100.00
46267;BME280;31998;48.798;15.066;2022-12-18T03:57:03;97155.28;;;-13.44;100.00
46267;BME280;31998;48.798;15.066;2022-12-18T03:59:31;97155.19;;;-13.55;100.00
46267;BME280;31998;48.798;15.066;2022-12-18T04:01:58;97151.03;;;-13.70;100.00
46267;BME280;31998;48.798;15.066;2022-12-18T04:04:27;97150.84;;;-13.67;100.00
46267;BME280;31998;48.798;15.066;2022-12-18T04:06:53;97155.81;;;-13.64;100.00
46267;BME280;31998;48.798;15.066;2022-12-18T04:09:20;97157.47;;;-13.63;100.00
46267;BME280;31998;48.798;15.066;2022-12-18T04:11:46;97158.63;;;-13.54;100.00
46267;BME280;31998;48.798;15.066;2022-12-18T04:14:12;97156.44;;;-13.60;100.00
46267;BME280;31998;48.798;15.066;2022-12-18T04:16:37;97162.75;;;-13.52;100.00
46267;BME280;31998;48.798;15.066;2022-12-18T04:19:03;97156.03;;;-13.67;100.00
46267;BME280;31998;48.798;15.066;2022-12-18T04:21:29;97174.25;;;-13.81;100.00
46267;BME280;31998;48.798;15.066;2022-12-18T04:23:54;97177.66;;;-13.93;100.00
46267;BME280;31998;48.798;15.066;2022-12-18T04:26:20;97186.41;;;-13.96;100.00
46267;BME280;31998;48.798;15.066;2022-12-18T04:28:45;97177.34;;;-14.02;100.00
46267;BME280;31998;48.798;15.066;2022-12-18T04:31:11;97193.34;;;-13.97;100.00
46267;BME280;31998;48.798;15.066;2022-12-18T04:33:36;97189.66;;;-13.92;100.00
46267;BME280;31998;48.798;15.066;2022-12-18T04:36:02;97191.91;;;-14.01;100.00
46267;BME280;31998;48.798;15.066;2022-12-18T04:38:28;97190.66;;;-14.08;100.00
46267;BME280;31998;48.798;15.066;2022-12-18T04:40:53;97193.84;;;-14.17;100.00
46267;BME280;31998;48.798;15.066;2022-12-18T04:43:18;97186.47;;;-14.23;100.00
46267;BME280;31998;48.798;15.066;2022-12-18T04:45:44;97187.63;;;-14.27;100.00
46267;BME280;31998;48.798;15.066;2022-12-18T04:48:09;97184.69;;;-14.35;100.00
46267;BME280;31998;48.798;15.066;2022-12-18T04:50:35;97176.84;;;-14.46;100.00
46267;BME280;31998;48.798;15.066;2022-12-18T04:53:00;97192.13;;;-14.43;100.00
46267;BME280;31998;48.798;15.066;2022-12-18T04:55:26;97196.56;;;-14.45;100.00
46267;BME280;31998;48.798;15.066;2022-12-18T04:57:52;97197.09;;;-14.40;100.00
46267;BME280;31998;48.798;15.066;2022-12-18T05:00:18;97190.78;;;-14.49;100.00
46267;BME280;31998;48.798;15.066;2022-12-18T05:02:43;97197.47;;;-14.59;100.00
46267;BME280;31998;48.798;15.066;2022-12-18T05:05:09;97202.59;;;-14.72;100.00
46267;BME280;31998;48.798;15.066;2022-12-18T05:07:35;97199.63;;;-14.80;100.00
46267;BME280;31998;48.798;15.066;2022-12-18T05:10:00;97198.31;;;-14.86;100.00
46267;BME280;31998;48.798;15.066;2022-12-18T05:12:26;97198.63;;;-14.77;100.00
46267;BME280;31998;48.798;15.066;2022-12-18T05:14:51;97209.78;;;-14.77;100.00
46267;BME280;31998;48.798;15.066;2022-12-18T05:17:16;97206.31;;;-14.90;100.00
46267;BME280;31998;48.798;15.066;2022-12-18T05:19:42;97205.97;;;-14.98;100.00
46267;BME280;31998;48.798;15.066;2022-12-18T05:22:07;97208.47;;;-14.97;100.00
46267;BME280;31998;48.798;15.066;2022-12-18T05:24:33;97215.56;;;-15.00;100.00
46267;BME280;31998;48.798;15.066;2022-12-18T05:26:59;97216.84;;;-15.08;100.00
46267;BME280;31998;48.798;15.066;2022-12-18T05:29:24;97215.56;;;-15.15;100.00
46267;BME280;31998;48.798;15.066;2022-12-18T05:31:49;97226.81;;;-15.16;100.00
46267;BME280;31998;48.798;15.066;2022-12-18T05:34:15;97235.78;;;-15.21;100.00
46267;BME280;31998;48.798;15.066;2022-12-18T05:36:40;97241.75;;;-15.21;100.00
46267;BME280;31998;48.798;15.066;2022-12-18T05:39:06;97233.47;;;-15.26;100.00
46267;BME280;31998;48.798;15.066;2022-12-18T05:41:31;97240.47;;;-15.28;100.00
46267;BME280;31998;48.798;15.066;2022-12-18T05:43:57;97240.84;;;-15.34;100.00
46267;BME280;31998;48.798;15.066;2022-12-18T05:46:23;97244.34;;;-15.35;100.00
46267;BME280;31998;48.798;15.066;2022-12-18T05:48:49;97239.91;;;-15.47;100.00
46267;BME280;31998;48.798;15.066;2022-12-18T05:51:17;97242.13;;;-15.55;100.00
46267;BME280;31998;48.798;15.066;2022-12-18T05:53:43;97226.66;;;-15.70;100.00
46267;BME280;31998;48.798;15.066;2022-12-18T05:56:15;97231.25;;;-15.46;100.00
46267;BME280;31998;48.798;15.066;2022-12-18T05:58:41;97238.63;;;-15.40;100.00
46267;BME280;31998;48.798;15.066;2022-12-18T06:01:17;97231.91;;;-15.43;100.00
46267;BME280;31998;48.798;15.066;2022-12-18T06:03:43;97246.19;;;-15.37;100.00
46267;BME280;31998;48.798;15.066;2022-12-18T06:06:20;97256.69;;;-15.40;100.00
46267;BME280;31998;48.798;15.066;2022-12-18T06:08:47;97261.28;;;-15.45;100.00
46267;BME280;31998;48.798;15.066;2022-12-18T06:11:17;97262.03;;;-15.43;100.00
46267;BME280;31998;48.798;15.066;2022-12-18T06:13:43;97262.22;;;-15.46;100.00
46267;BME280;31998;48.798;15.066;2022-12-18T06:16:08;97275.31;;;-15.49;100.00
46267;BME280;31998;48.798;15.066;2022-12-18T06:18:34;97279.00;;;-15.39;100.00
46267;BME280;31998;48.798;15.066;2022-12-18T06:21:00;97268.28;;;-15.47;100.00
46267;BME280;31998;48.798;15.066;2022-12-18T06:23:26;97264.25;;;-15.51;100.00
46267;BME280;31998;48.798;15.066;2022-12-18T06:25:51;97279.25;;;-15.58;100.00
46267;BME280;31998;48.798;15.066;2022-12-18T06:28:17;97280.53;;;-15.65;100.00
46267;BME280;31998;48.798;15.066;2022-12-18T06:30:43;97280.25;;;-15.75;100.00
46267;BME280;31998;48.798;15.066;2022-12-18T06:33:09;97266.81;;;-15.80;100.00
46267;BME280;31998;48.798;15.066;2022-12-18T06:35:34;97275.84;;;-15.73;100.00
46267;BME280;31998;48.798;15.066;2022-12-18T06:38:01;97286.97;;;-15.72;100.00
46267;BME280;31998;48.798;15.066;2022-12-18T06:40:27;97279.59;;;-15.78;100.00
46267;BME280;31998;48.798;15.066;2022-12-18T06:42:52;97283.66;;;-15.74;100.00
46267;BME280;31998;48.798;15.066;2022-12-18T06:45:17;97295.50;;;-15.86;100.00
46267;BME280;31998;48.798;15.066;2022-12-18T06:47:43;97299.84;;;-15.86;100.00
46267;BME280;31998;48.798;15.066;2022-12-18T06:50:09;97312.00;;;-15.88;100.00
46267;BME280;31998;48.798;15.066;2022-12-18T06:52:37;97305.09;;;-15.88;100.00
46267;BME280;31998;48.798;15.066;2022-12-18T06:55:04;97285.84;;;-15.97;100.00
46267;BME280;31998;48.798;15.066;2022-12-18T06:57:30;97295.84;;;-15.76;100.00
46267;BME280;31998;48.798;15.066;2022-12-18T06:59:55;97305.38;;;-15.78;100.00
46267;BME280;31998;48.798;15.066;2022-12-18T07:02:20;97315.63;;;-15.77;100.00
46267;BME280;31998;48.798;15.066;2022-12-18T07:04:46;97320.78;;;-15.77;100.00
46267;BME280;31998;48.798;15.066;2022-12-18T07:07:11;97328.19;;;-15.56;100.00
46267;BME280;31998;48.798;15.066;2022-12-18T07:09:36;97333.06;;;-15.52;100.00
46267;BME280;31998;48.798;15.066;2022-12-18T07:12:02;97331.34;;;-15.51;100.00
46267;BME280;31998;48.798;15.066;2022-12-18T07:14:27;97337.22;;;-15.64;100.00
46267;BME280;31998;48.798;15.066;2022-12-18T07:16:53;97342.16;;;-15.75;100.00
46267;BME280;31998;48.798;15.066;2022-12-18T07:19:18;97334.69;;;-15.79;100.00
46267;BME280;31998;48.798;15.066;2022-12-18T07:21:44;97343.34;;;-15.80;100.00
46267;BME280;31998;48.798;15.066;2022-12-18T07:24:09;97358.22;;;-15.70;100.00
46267;BME280;31998;48.798;15.066;2022-12-18T07:26:34;97357.13;;;-15.51;100.00
46267;BME280;31998;48.798;15.066;2022-12-18T07:29:00;97360.09;;;-15.43;100.00
46267;BME280;31998;48.798;15.066;2022-12-18T07:31:26;97365.84;;;-15.38;100.00
46267;BME280;31998;48.798;15.066;2022-12-18T07:33:52;97357.91;;;-15.35;100.00
46267;BME280;31998;48.798;15.066;2022-12-18T07:36:18;97357.44;;;-15.27;100.00
46267;BME280;31998;48.798;15.066;2022-12-18T07:38:46;97369.41;;;-14.96;100.00
46267;BME280;31998;48.798;15.066;2022-12-18T07:41:13;97369.97;;;-14.77;100.00
46267;BME280;31998;48.798;15.066;2022-12-18T07:43:40;97366.28;;;-14.73;100.00
46267;BME280;31998;48.798;15.066;2022-12-18T07:46:06;97361.56;;;-14.66;100.00
46267;BME280;31998;48.798;15.066;2022-12-18T07:48:32;97353.25;;;-14.57;100.00
46267;BME280;31998;48.798;15.066;2022-12-18T07:51:01;97364.88;;;-14.23;100.00
46267;BME280;31998;48.798;15.066;2022-12-18T07:53:27;97351.09;;;-14.09;100.00
46267;BME280;31998;48.798;15.066;2022-12-18T07:56:00;97355.94;;;-13.90;100.00
46267;BME280;31998;48.798;15.066;2022-12-18T07:58:27;97345.34;;;-13.73;100.00
46267;BME280;31998;48.798;15.066;2022-12-18T08:00:52;97350.31;;;-13.70;100.00
46267;BME280;31998;48.798;15.066;2022-12-18T08:03:18;97347.53;;;-13.67;100.00
46267;BME280;31998;48.798;15.066;2022-12-18T08:05:43;97349.84;;;-13.62;100.00
46267;BME280;31998;48.798;15.066;2022-12-18T08:08:09;97341.56;;;-13.55;100.00
46267;BME280;31998;48.798;15.066;2022-12-18T08:10:34;97365.63;;;-13.27;100.00
46267;BME280;31998;48.798;15.066;2022-12-18T08:13:00;97356.38;;;-13.19;100.00
46267;BME280;31998;48.798;15.066;2022-12-18T08:15:25;97366.25;;;-12.98;100.00
46267;BME280;31998;48.798;15.066;2022-12-18T08:17:50;97380.56;;;-12.93;100.00
46267;BME280;31998;48.798;15.066;2022-12-18T08:20:16;97378.91;;;-12.81;100.00
46267;BME280;31998;48.798;15.066;2022-12-18T08:22:43;97371.03;;;-12.67;100.00
46267;BME280;31998;48.798;15.066;2022-12-18T08:25:09;97377.84;;;-12.40;100.00
46267;BME280;31998;48.798;15.066;2022-12-18T08:27:34;97366.81;;;-12.18;100.00
46267;BME280;31998;48.798;15.066;2022-12-18T08:30:00;97333.38;;;-12.10;100.00
46267;BME280;31998;48.798;15.066;2022-12-18T08:32:27;97358.53;;;-11.76;100.00
46267;BME280;31998;48.798;15.066;2022-12-18T08:34:52;97366.03;;;-11.36;100.00
46267;BME280;31998;48.798;15.066;2022-12-18T08:37:18;97359.19;;;-11.02;100.00
46267;BME280;31998;48.798;15.066;2022-12-18T08:39:43;97363.03;;;-10.61;100.00
46267;BME280;31998;48.798;15.066;2022-12-18T08:42:09;97373.31;;;-10.26;100.00
46267;BME280;31998;48.798;15.066;2022-12-18T08:44:53;97371.00;;;-9.97;100.00
46267;BME280;31998;48.798;15.066;2022-12-18T08:47:18;97382.41;;;-9.66;100.00
46267;BME280;31998;48.798;15.066;2022-12-18T08:49:43;97380.91;;;-9.36;100.00
46267;BME280;31998;48.798;15.066;2022-12-18T08:52:09;97373.25;;;-9.17;100.00
46267;BME280;31998;48.798;15.066;2022-12-18T08:54:34;97383.38;;;-9.03;100.00
46267;BME280;31998;48.798;15.066;2022-12-18T08:57:00;97380.31;;;-8.87;100.00
46267;BME280;31998;48.798;15.066;2022-12-18T08:59:25;97371.06;;;-8.80;100.00
46267;BME280;31998;48.798;15.066;2022-12-18T09:01:53;97377.66;;;-8.76;100.00
46267;BME280;31998;48.798;15.066;2022-12-18T09:04:19;97386.53;;;-8.67;100.00
46267;BME280;31998;48.798;15.066;2022-12-18T09:06:44;97386.75;;;-8.70;100.00
46267;BME280;31998;48.798;15.066;2022-12-18T09:09:10;97392.28;;;-8.63;100.00
46267;BME280;31998;48.798;15.066;2022-12-18T09:11:36;97389.03;;;-8.56;100.00
46267;BME280;31998;48.798;15.066;2022-12-18T09:14:02;97384.41;;;-8.52;100.00
46267;BME280;31998;48.798;15.066;2022-12-18T09:16:28;97385.91;;;-8.50;100.00
46267;BME280;31998;48.798;15.066;2022-12-18T09:18:55;97382.78;;;-8.43;100.00
46267;BME280;31998;48.798;15.066;2022-12-18T09:21:25;97379.53;;;-8.36;100.00
46267;BME280;31998;48.798;15.066;2022-12-18T09:23:55;97367.72;;;-8.40;100.00
46267;BME280;31998;48.798;15.066;2022-12-18T09:26:22;97378.16;;;-8.30;100.00
46267;BME280;31998;48.798;15.066;2022-12-18T09:28:48;97387.53;;;-8.18;100.00
46267;BME280;31998;48.798;15.066;2022-12-18T09:31:13;97395.53;;;-8.10;100.00
46267;BME280;31998;48.798;15.066;2022-12-18T09:33:39;97381.00;;;-8.03;100.00
46267;BME280;31998;48.798;15.066;2022-12-18T09:36:09;97384.19;;;-7.99;100.00
46267;BME280;31998;48.798;15.066;2022-12-18T09:38:35;97376.66;;;-7.93;100.00
46267;BME280;31998;48.798;15.066;2022-12-18T09:44:22;97374.22;;;-7.75;100.00
46267;BME280;31998;48.798;15.066;2022-12-18T09:47:03;97364.59;;;-7.74;100.00
46267;BME280;31998;48.798;15.066;2022-12-18T09:49:34;97366.25;;;-7.63;100.00
46267;BME280;31998;48.798;15.066;2022-12-18T09:52:15;97375.91;;;-7.54;100.00
46267;BME280;31998;48.798;15.066;2022-12-18T09:54:46;97368.63;;;-7.51;100.00
46267;BME280;31998;48.798;15.066;2022-12-18T09:57:17;97372.34;;;-7.44;100.00
46267;BME280;31998;48.798;15.066;2022-12-18T09:59:47;97361.88;;;-7.44;100.00
46267;BME280;31998;48.798;15.066;2022-12-18T10:02:23;97357.06;;;-7.39;100.00
46267;BME280;31998;48.798;15.066;2022-12-18T10:05:07;97363.97;;;-7.28;100.00
46267;BME280;31998;48.798;15.066;2022-12-18T10:07:41;97366.44;;;-7.26;100.00
46267;BME280;31998;48.798;15.066;2022-12-18T10:10:18;97369.75;;;-7.15;100.00
46267;BME280;31998;48.798;15.066;2022-12-18T10:13:02;97369.59;;;-7.13;100.00
46267;BME280;31998;48.798;15.066;2022-12-18T10:15:58;97356.41;;;-7.02;100.00
46267;BME280;31998;48.798;15.066;2022-12-18T10:21:26;97366.28;;;-6.86;100.00
46267;BME280;31998;48.798;15.066;2022-12-18T10:26:27;97366.97;;;-6.74;100.00
46267;BME280;31998;48.798;15.066;2022-12-18T10:28:53;97360.19;;;-6.67;100.00
46267;BME280;31998;48.798;15.066;2022-12-18T10:31:21;97355.78;;;-6.67;100.00
46267;BME280;31998;48.798;15.066;2022-12-18T10:33:47;97359.94;;;-6.64;100.00
46267;BME280;31998;48.798;15.066;2022-12-18T10:36:13;97361.00;;;-6.57;100.00
46267;BME280;31998;48.798;15.066;2022-12-18T10:38:39;97341.97;;;-6.59;100.00
46267;BME280;31998;48.798;15.066;2022-12-18T10:44:15;97346.66;;;-6.53;100.00
46267;BME280;31998;48.798;15.066;2022-12-18T10:46:41;97357.44;;;-6.56;100.00
46267;BME280;31998;48.798;15.066;2022-12-18T10:49:19;97344.19;;;-6.54;100.00
46267;BME280;31998;48.798;15.066;2022-12-18T10:51:44;97343.75;;;-6.50;100.00
46267;BME280;31998;48.798;15.066;2022-12-18T10:54:17;97328.63;;;-6.56;100.00
46267;BME280;31998;48.798;15.066;2022-12-18T10:56:43;97337.56;;;-6.49;100.00
46267;BME280;31998;48.798;15.066;2022-12-18T10:59:11;97340.84;;;-6.47;100.00
46267;BME280;31998;48.798;15.066;2022-12-18T11:01:53;97340.00;;;-6.38;100.00
46267;BME280;31998;48.798;15.066;2022-12-18T11:04:23;97344.44;;;-6.38;100.00
46267;BME280;31998;48.798;15.066;2022-12-18T11:11:56;97331.69;;;-6.33;100.00
46267;BME280;31998;48.798;15.066;2022-12-18T11:14:27;97329.78;;;-6.31;100.00
46267;BME280;31998;48.798;15.066;2022-12-18T11:16:54;97318.47;;;-6.32;100.00
46267;BME280;31998;48.798;15.066;2022-12-18T11:19:28;97309.25;;;-6.36;100.00
46267;BME280;31998;48.798;15.066;2022-12-18T11:21:55;97311.56;;;-6.33;100.00
46267;BME280;31998;48.798;15.066;2022-12-18T11:24:32;97307.44;;;-6.25;100.00
46267;BME280;31998;48.798;15.066;2022-12-18T11:27:00;97299.16;;;-6.31;100.00
46267;BME280;31998;48.798;15.066;2022-12-18T11:29:37;97296.78;;;-6.24;100.00
46267;BME280;31998;48.798;15.066;2022-12-18T11:34:44;97295.41;;;-6.18;100.00
46267;BME280;31998;48.798;15.066;2022-12-18T11:37:13;97292.38;;;-6.23;100.00
46267;BME280;31998;48.798;15.066;2022-12-18T11:39:44;97293.63;;;-6.28;100.00
46267;BME280;31998;48.798;15.066;2022-12-18T11:42:30;97290.19;;;-6.28;100.00
46267;BME280;31998;48.798;15.066;2022-12-18T11:45:26;97297.31;;;-6.20;100.00
46267;BME280;31998;48.798;15.066;2022-12-18T11:53:02;97283.97;;;-6.27;100.00
46267;BME280;31998;48.798;15.066;2022-12-18T11:58:42;97277.06;;;-6.18;100.00
46267;BME280;31998;48.798;15.066;2022-12-18T12:04:09;97279.69;;;-6.18;100.00
46267;BME280;31998;48.798;15.066;2022-12-18T12:09:59;97279.75;;;-6.10;100.00
46267;BME280;31998;48.798;15.066;2022-12-18T12:12:36;97286.38;;;-6.06;100.00
46267;BME280;31998;48.798;15.066;2022-12-18T12:15:51;97280.09;;;-5.95;100.00
46267;BME280;31998;48.798;15.066;2022-12-18T12:18:30;97280.41;;;-5.98;100.00
46267;BME280;31998;48.798;15.066;2022-12-18T12:21:41;97292.91;;;-5.92;100.00
46267;BME280;31998;48.798;15.066;2022-12-18T12:35:32;97295.31;;;-5.99;100.00
46267;BME280;31998;48.798;15.066;2022-12-18T12:40:35;97288.44;;;-6.10;100.00
46267;BME280;31998;48.798;15.066;2022-12-18T12:43:10;97287.22;;;-6.15;100.00
46267;BME280;31998;48.798;15.066;2022-12-18T12:46:00;97279.81;;;-6.20;100.00
46267;BME280;31998;48.798;15.066;2022-12-18T12:51:39;97270.53;;;-6.14;100.00
46267;BME280;31998;48.798;15.066;2022-12-18T12:54:06;97278.63;;;-6.08;100.00
46267;BME280;31998;48.798;15.066;2022-12-18T13:05:19;97301.84;;;-6.13;100.00
46267;BME280;31998;48.798;15.066;2022-12-18T13:07:56;97299.00;;;-6.19;100.00
46267;BME280;31998;48.798;15.066;2022-12-18T13:10:28;97307.69;;;-6.19;100.00
46267;BME280;31998;48.798;15.066;2022-12-18T13:20:42;97308.50;;;-6.18;100.00
46267;BME280;31998;48.798;15.066;2022-12-18T13:31:13;97328.66;;;-6.29;100.00
46267;BME280;31998;48.798;15.066;2022-12-18T13:33:43;97330.31;;;-6.28;100.00
46267;BME280;31998;48.798;15.066;2022-12-18T13:36:16;97333.75;;;-6.27;100.00
46267;BME280;31998;48.798;15.066;2022-12-18T13:38:43;97330.31;;;-6.28;100.00
46267;BME280;31998;48.798;15.066;2022-12-18T13:43:45;97327.59;;;-6.36;100.00
46267;BME280;31998;48.798;15.066;2022-12-18T13:48:51;97340.38;;;-6.33;100.00
46267;BME280;31998;48.798;15.066;2022-12-18T13:51:18;97320.72;;;-6.46;100.00
46267;BME280;31998;48.798;15.066;2022-12-18T13:53:56;97333.97;;;-6.48;100.00
46267;BME280;31998;48.798;15.066;2022-12-18T13:56:28;97334.53;;;-6.44;100.00
46267;BME280;31998;48.798;15.066;2022-12-18T14:01:31;97341.94;;;-6.40;100.00
46267;BME280;31998;48.798;15.066;2022-12-18T14:04:12;97333.81;;;-6.37;100.00
46267;BME280;31998;48.798;15.066;2022-12-18T14:06:42;97324.56;;;-6.41;100.00
46267;BME280;31998;48.798;15.066;2022-12-18T14:09:14;97319.91;;;-6.47;100.00
46267;BME280;31998;48.798;15.066;2022-12-18T14:11:40;97324.31;;;-6.47;100.00
46267;BME280;31998;48.798;15.066;2022-12-18T14:14:14;97321.53;;;-6.46;100.00
46267;BME280;31998;48.798;15.066;2022-12-18T14:16:40;97328.47;;;-6.45;100.00
46267;BME280;31998;48.798;15.066;2022-12-18T14:19:12;97324.31;;;-6.47;100.00
46267;BME280;31998;48.798;15.066;2022-12-18T14:21:38;97326.25;;;-6.49;100.00
46267;BME280;31998;48.798;15.066;2022-12-18T14:24:19;97333.53;;;-6.43;100.00